Time;durP1;ratioP1;P1;durP2;ratioP2;P2;SDS_P1;SDS_P2;PMS_P1;PMS_P2;Temp;Humidity;BMP_temperature;BMP_pressure;BME280_temperature;BME280_humidity;BME280_pressure;Samples;Min_cycle;Max_cycle;Signal;HPM_P1;HPM_P2
2022/08/20 00:00:29;;;;;;;12.50;6.55;;;;;;;18.33;100.00;99711.56;5152975;27;20054;-50
2022/08/20 00:02:58;;;;;;;10.32;5.22;;;;;;;18.58;100.00;99716.19;5152653;27;20053;-48
2022/08/20 00:05:27;;;;;;;15.43;5.53;;;;;;;18.46;100.00;99717.47;5152912;27;20055;-49
2022/08/20 00:07:54;;;;;;;9.80;7.40;;;;;;;18.23;100.00;99712.41;5152512;27;20050;-51
2022/08/20 00:10:22;;;;;;;11.30;7.72;;;;;;;18.38;100.00;99715.13;5152526;27;20050;-49
2022/08/20 00:12:49;;;;;;;14.20;5.07;;;;;;;18.24;100.00;99711.22;5152655;27;20455;-50
2022/08/20 00:15:18;;;;;;;14.27;5.95;;;;;;;18.10;100.00;99703.75;5152311;27;20046;-50
2022/08/20 00:17:44;;;;;;;11.25;5.40;;;;;;;18.27;100.00;99704.84;5152699;27;20142;-51
2022/08/20 00:20:12;;;;;;;7.35;5.68;;;;;;;17.97;100.00;99707.38;5152527;27;20050;-49
2022/08/20 00:22:39;;;;;;;11.45;7.32;;;;;;;18.14;100.00;99691.84;5152686;27;20057;-50
2022/08/20 00:25:07;;;;;;;8.20;5.32;;;;;;;17.98;100.00;99698.63;5152167;27;20084;-48
2022/08/20 00:27:33;;;;;;;9.07;6.00;;;;;;;18.18;100.00;99703.72;5152633;27;20057;-52
2022/08/20 00:29:59;;;;;;;7.88;5.47;;;;;;;18.09;100.00;99704.13;5152136;27;20051;-52
2022/08/20 00:32:25;;;;;;;10.00;5.60;;;;;;;18.18;100.00;99710.03;5152758;27;20043;-50
2022/08/20 00:34:52;;;;;;;15.60;7.43;;;;;;;18.16;100.00;99701.34;5152562;27;20047;-49
2022/08/20 00:37:18;;;;;;;9.02;5.65;;;;;;;18.06;100.00;99705.75;5152358;27;20498;-51
2022/08/20 00:39:44;;;;;;;10.32;5.15;;;;;;;18.17;100.00;99714.03;5152400;27;20075;-48
2022/08/20 00:42:12;;;;;;;13.38;7.38;;;;;;;18.19;100.00;99708.06;5152293;27;20553;-49
2022/08/20 00:44:44;;;;;;;11.65;5.38;;;;;;;17.84;100.00;99698.69;5152210;27;20402;-50
2022/08/20 00:47:10;;;;;;;8.02;5.20;;;;;;;17.76;100.00;99691.53;5152245;27;20046;-49
2022/08/20 00:49:36;;;;;;;7.13;4.88;;;;;;;18.00;100.00;99676.03;5152397;27;20631;-48
2022/08/20 00:52:06;;;;;;;11.15;5.38;;;;;;;17.76;100.00;99678.50;5152140;27;20605;-49
2022/08/20 00:54:37;;;;;;;13.05;7.57;;;;;;;17.92;100.00;99677.25;5151933;27;20133;-52
2022/08/20 00:57:07;;;;;;;8.60;5.53;;;;;;;17.85;100.00;99670.53;5151736;27;20054;-48
2022/08/20 00:59:38;;;;;;;10.95;5.70;;;;;;;17.91;100.00;99681.22;5151761;27;20050;-49
2022/08/20 01:02:08;;;;;;;12.73;7.53;;;;;;;17.94;100.00;99680.44;5152024;27;20103;-52
2022/08/20 01:04:35;;;;;;;18.08;6.22;;;;;;;17.84;100.00;99666.19;5151894;27;20194;-50
2022/08/20 01:07:04;;;;;;;11.73;5.22;;;;;;;17.98;100.00;99670.09;5152023;27;20050;-51
2022/08/20 01:09:31;;;;;;;7.53;5.72;;;;;;;17.95;100.00;99682.00;5151578;27;20489;-51
2022/08/20 01:11:57;;;;;;;9.13;7.30;;;;;;;17.73;100.00;99673.72;5151091;27;20130;-51
2022/08/20 01:14:28;;;;;;;12.60;5.95;;;;;;;17.98;100.00;99681.19;5151420;27;20093;-49
2022/08/20 01:17:01;;;;;;;13.13;5.70;;;;;;;17.88;100.00;99689.16;5151995;27;20085;-52
2022/08/20 01:19:32;;;;;;;9.60;7.40;;;;;;;17.80;100.00;99673.75;5151572;27;20502;-49
2022/08/20 01:22:00;;;;;;;8.38;5.72;;;;;;;17.82;100.00;99662.22;5151630;27;20074;-49
2022/08/20 01:24:34;;;;;;;12.07;6.22;;;;;;;17.70;100.00;99663.44;5151825;27;20137;-50
2022/08/20 01:27:02;;;;;;;;;;;;;;;17.91;100.00;99678.44;5152061;27;20509;-48
2022/08/20 01:29:34;;;;;;;11.02;5.88;;;;;;;17.78;100.00;99680.88;5151709;27;19929;-51
2022/08/20 01:32:01;;;;;;;12.98;5.93;;;;;;;17.78;100.00;99672.56;5151605;27;20051;-48
2022/08/20 01:34:28;;;;;;;13.05;7.55;;;;;;;17.68;100.00;99663.03;5151787;27;20114;-48
2022/08/20 01:36:57;;;;;;;10.32;6.05;;;;;;;17.67;100.00;99660.69;5151519;27;20185;-50
2022/08/20 01:39:26;;;;;;;9.57;6.05;;;;;;;17.65;100.00;99675.72;5151706;27;20059;-51
2022/08/20 01:42:02;;;;;;;9.55;5.63;;;;;;;17.57;100.00;99656.75;5151393;27;20095;-51
2022/08/20 01:44:31;;;;;;;10.73;7.40;;;;;;;17.84;100.00;99654.31;5151441;27;20043;-51
2022/08/20 01:47:13;;;;;;;11.38;6.53;;;;;;;17.70;100.00;99669.00;5151517;27;20057;-51
2022/08/20 01:49:44;;;;;;;9.50;5.82;;;;;;;17.97;100.00;99663.75;5151038;27;20097;-49
2022/08/20 01:52:14;;;;;;;10.07;5.75;;;;;;;18.18;100.00;99685.06;5151486;27;20429;-49
2022/08/20 01:54:40;;;;;;;11.65;7.53;;;;;;;18.23;100.00;99704.09;5151054;27;20053;-48
2022/08/20 01:57:12;;;;;;;9.25;6.00;;;;;;;18.06;100.00;99704.94;5151482;27;20600;-51
2022/08/20 01:59:40;;;;;;;7.85;5.30;;;;;;;17.87;100.00;99698.66;5151345;27;20054;-49
2022/08/20 02:02:08;;;;;;;8.88;7.25;;;;;;;18.06;100.00;99683.56;5151290;27;20578;-50
2022/08/20 02:04:34;;;;;;;10.38;6.72;;;;;;;17.91;100.00;99670.91;5150980;27;20051;-50
2022/08/20 02:07:03;;;;;;;10.90;5.57;;;;;;;17.83;100.00;99650.75;5150919;27;20069;-49
2022/08/20 02:09:32;;;;;;;9.32;6.82;;;;;;;18.11;100.00;99668.47;5151041;27;20526;-49
2022/08/20 02:11:59;;;;;;;8.75;5.85;;;;;;;18.19;100.00;99669.22;5150716;27;20095;-51
2022/08/20 02:14:28;;;;;;;11.15;5.93;;;;;;;17.92;100.00;99661.41;5150717;27;20046;-51
2022/08/20 02:16:57;;;;;;;9.18;7.78;;;;;;;18.21;100.00;99652.94;5150627;27;20057;-50
2022/08/20 02:19:26;;;;;;;12.00;8.52;;;;;;;18.22;100.00;99668.41;5150946;27;20134;-52
2022/08/20 02:21:57;;;;;;;9.88;5.80;;;;;;;18.39;100.00;99675.84;5150710;27;20073;-53
2022/08/20 02:24:24;;;;;;;7.18;5.32;;;;;;;18.23;100.00;99683.88;5154601;27;20516;-51
2022/08/20 02:26:52;;;;;;;8.85;7.20;;;;;;;18.05;100.00;99676.41;5154216;27;20053;-49
2022/08/20 02:29:18;;;;;;;9.82;5.78;;;;;;;18.27;100.00;99685.44;5153961;27;20086;-49
2022/08/20 02:31:45;;;;;;;8.13;5.78;;;;;;;18.26;100.00;99678.31;5154112;27;20047;-49
2022/08/20 02:34:14;;;;;;;10.88;7.40;;;;;;;18.24;100.00;99682.66;5154138;27;20420;-49
2022/08/20 02:36:42;;;;;;;8.18;6.07;;;;;;;17.87;100.00;99679.25;5154241;27;20141;-51
2022/08/20 02:39:10;;;;;;;9.30;5.90;;;;;;;18.13;100.00;99671.63;5154194;27;20050;-51
2022/08/20 02:41:38;;;;;;;12.95;5.60;;;;;;;18.22;100.00;99668.41;5154378;27;20043;-49
2022/08/20 02:44:06;;;;;;;18.65;6.43;;;;;;;18.06;100.00;99675.22;5154538;27;20057;-48
2022/08/20 02:46:33;;;;;;;12.48;7.75;;;;;;;18.33;100.00;99671.94;5154359;27;20103;-51
2022/08/20 02:48:59;;;;;;;9.25;6.95;;;;;;;18.01;100.00;99672.06;5153985;27;20497;-50
2022/08/20 02:51:26;;;;;;;9.18;5.85;;;;;;;18.19;100.00;99663.66;5154716;27;20413;-49
2022/08/20 02:53:52;;;;;;;9.43;7.40;;;;;;;18.00;100.00;99665.75;5154184;27;20731;-49
2022/08/20 02:56:19;;;;;;;9.02;5.70;;;;;;;18.20;100.00;99659.72;5154570;27;20092;-51
2022/08/20 02:58:45;;;;;;;9.57;5.75;;;;;;;18.34;100.00;99677.06;5154133;27;20080;-49
2022/08/20 03:01:15;;;;;;;13.00;5.82;;;;;;;18.26;100.00;99686.63;5154031;27;20047;-50
2022/08/20 03:03:42;;;;;;;10.43;7.45;;;;;;;18.19;100.00;99685.84;5153965;27;20047;-49
2022/08/20 03:06:10;;;;;;;13.63;7.68;;;;;;;18.05;100.00;99686.72;5153435;27;20133;-49
2022/08/20 03:08:37;;;;;;;14.13;7.88;;;;;;;18.10;100.00;99686.31;5153863;27;20456;-47
2022/08/20 03:11:04;;;;;;;10.35;7.15;;;;;;;18.11;100.00;99685.09;5153569;27;20513;-49
2022/08/20 03:13:31;;;;;;;11.82;5.78;;;;;;;18.26;100.00;99669.16;5153592;27;20054;-49
2022/08/20 03:15:59;;;;;;;11.43;5.47;;;;;;;17.83;100.00;99656.28;5153433;27;20141;-47
2022/08/20 03:18:28;;;;;;;8.30;5.45;;;;;;;18.29;100.00;99658.06;5153803;27;20043;-48
2022/08/20 03:20:54;;;;;;;8.90;7.65;;;;;;;17.94;100.00;99652.69;5153376;27;20420;-49
2022/08/20 03:23:21;;;;;;;9.43;5.72;;;;;;;18.08;100.00;99645.06;5153732;27;20552;-48
2022/08/20 03:25:48;;;;;;;10.05;5.80;;;;;;;18.03;100.00;99655.81;5153288;27;20055;-49
2022/08/20 03:28:16;;;;;;;8.25;5.80;;;;;;;18.09;100.00;99655.00;5153368;27;20055;-49
2022/08/20 03:30:42;;;;;;;9.82;6.13;;;;;;;18.10;100.00;99658.56;5153423;27;20561;-48
2022/08/20 03:33:09;;;;;;;9.05;7.50;;;;;;;17.99;100.00;99655.03;5153137;27;20093;-48
2022/08/20 03:35:36;;;;;;;10.00;7.65;;;;;;;18.04;100.00;99647.09;5152707;27;20049;-48
2022/08/20 03:38:06;;;;;;;12.93;6.07;;;;;;;18.26;100.00;99652.50;5153192;27;20043;-48
2022/08/20 03:40:34;;;;;;;7.38;5.32;;;;;;;18.16;100.00;99645.84;5153262;27;20050;-49
2022/08/20 03:43:01;;;;;;;13.85;5.88;;;;;;;18.09;100.00;99643.91;5153145;27;20099;-52
2022/08/20 03:45:29;;;;;;;9.32;5.35;;;;;;;17.94;100.00;99608.31;5153081;27;20051;-50
2022/08/20 03:47:55;;;;;;;10.52;6.22;;;;;;;18.17;100.00;99614.13;5152894;27;20054;-48
2022/08/20 03:50:25;;;;;;;19.70;6.65;;;;;;;18.25;100.00;99642.63;5153327;27;20141;-51
2022/08/20 03:52:52;;;;;;;9.73;7.63;;;;;;;18.17;100.00;99644.66;5152821;27;20046;-48
2022/08/20 03:55:19;;;;;;;13.30;6.60;;;;;;;17.96;100.00;99630.88;5152817;27;20135;-50
2022/08/20 03:57:47;;;;;;;11.05;8.00;;;;;;;18.20;100.00;99632.75;5153072;27;20050;-49
2022/08/20 04:00:26;;;;;;;10.23;5.28;;;;;;;18.23;100.00;99620.84;5152751;27;20093;-48
2022/08/20 04:02:52;;;;;;;9.95;5.80;;;;;;;18.04;100.00;99624.09;5152697;27;20103;-48
2022/08/20 04:05:19;;;;;;;12.80;7.13;;;;;;;18.24;100.00;99627.16;5152820;27;20047;-47
2022/08/20 04:07:46;;;;;;;10.75;6.20;;;;;;;18.08;100.00;99630.41;5152849;27;20050;-49
2022/08/20 04:10:12;;;;;;;15.20;6.38;;;;;;;18.08;100.00;99624.88;5152668;27;20050;-47
2022/08/20 04:12:39;;;;;;;10.52;7.85;;;;;;;18.24;100.00;99613.28;5152506;27;20200;-48
2022/08/20 04:15:08;;;;;;;9.43;6.32;;;;;;;18.03;100.00;99617.00;5152442;27;20074;-50
2022/08/20 04:17:36;;;;;;;10.13;6.05;;;;;;;18.29;100.00;99621.19;5152736;27;20091;-48
2022/08/20 04:20:04;;;;;;;14.15;8.43;;;;;;;18.26;100.00;99613.66;5152431;27;20086;-51
2022/08/20 04:22:31;;;;;;;11.15;7.90;;;;;;;18.34;100.00;99632.66;5152300;27;20080;-48
2022/08/20 04:24:57;;;;;;;13.80;6.65;;;;;;;18.31;100.00;99627.91;5152543;27;20078;-48
2022/08/20 04:27:23;;;;;;;13.25;6.68;;;;;;;18.47;100.00;99629.41;5152283;27;20046;-49
2022/08/20 04:29:50;;;;;;;9.57;6.45;;;;;;;18.38;100.00;99649.28;5152411;27;20061;-49
2022/08/20 04:32:16;;;;;;;9.43;6.55;;;;;;;18.62;100.00;99655.06;5152244;27;20054;-49
2022/08/20 04:34:43;;;;;;;7.47;5.88;;;;;;;18.82;100.00;99664.47;5152259;27;20575;-50
2022/08/20 04:37:10;;;;;;;12.30;6.05;;;;;;;18.65;100.00;99673.69;5152247;27;20083;-49
2022/08/20 04:39:36;;;;;;;9.43;6.10;;;;;;;18.48;100.00;99658.75;5152134;27;20050;-49
2022/08/20 04:42:02;;;;;;;12.05;7.68;;;;;;;18.41;100.00;99656.00;5152072;27;20053;-50
2022/08/20 04:44:29;;;;;;;11.25;8.50;;;;;;;18.38;100.00;99643.72;5152524;27;20054;-48
2022/08/20 04:46:55;;;;;;;8.48;6.10;;;;;;;18.21;100.00;99617.66;5151184;27;20046;-48
2022/08/20 04:49:23;;;;;;;12.93;8.60;;;;;;;18.15;100.00;99585.97;5152222;27;20050;-48
2022/08/20 04:51:50;;;;;;;15.13;7.00;;;;;;;18.33;100.00;99572.78;5152245;27;20042;-51
2022/08/20 04:54:17;;;;;;;13.90;6.85;;;;;;;18.11;100.00;99568.56;5152089;27;20141;-49
2022/08/20 04:56:43;;;;;;;8.30;6.07;;;;;;;18.19;100.00;99558.22;5151999;27;20580;-49
2022/08/20 04:59:09;;;;;;;9.52;8.60;;;;;;;18.25;100.00;99559.38;5152200;27;20162;-49
2022/08/20 05:01:35;;;;;;;15.90;9.45;;;;;;;18.14;100.00;99556.66;5152070;27;20133;-52
2022/08/20 05:04:02;;;;;;;14.57;6.40;;;;;;;18.35;100.00;99548.19;5151774;27;20050;-48
2022/08/20 05:06:30;;;;;;;12.98;6.57;;;;;;;18.13;100.00;99526.53;5151867;27;20138;-49
2022/08/20 05:08:59;;;;;;;12.70;6.40;;;;;;;18.31;100.00;99529.97;5151797;27;20053;-50
2022/08/20 05:11:26;;;;;;;10.77;7.05;;;;;;;18.49;100.00;99533.41;5152240;27;20141;-50
2022/08/20 05:13:53;;;;;;;14.68;9.30;;;;;;;18.31;100.00;99532.75;5151984;27;20096;-49
2022/08/20 05:16:19;;;;;;;14.07;9.45;;;;;;;18.47;100.00;99527.47;5151793;27;20161;-49
2022/08/20 05:18:46;;;;;;;10.68;6.85;;;;;;;18.60;100.00;99546.41;5152057;27;20525;-51
2022/08/20 05:21:12;;;;;;;13.65;6.82;;;;;;;18.56;100.00;99563.91;5151744;27;20050;-52
2022/08/20 05:23:41;;;;;;;14.55;8.93;;;;;;;18.28;100.00;99547.44;5151823;27;20383;-49
2022/08/20 05:26:10;;;;;;;12.68;9.48;;;;;;;18.68;100.00;99531.25;5151573;27;20138;-52
2022/08/20 05:28:38;;;;;;;12.32;6.80;;;;;;;18.95;100.00;99573.09;5151583;27;20140;-49
2022/08/20 05:31:08;;;;;;;14.43;10.13;;;;;;;18.51;100.00;99555.22;5151438;27;20551;-51
2022/08/20 05:33:36;;;;;;;16.02;10.98;;;;;;;18.83;100.00;99559.72;5151379;27;20051;-52
2022/08/20 05:36:05;;;;;;;17.08;9.57;;;;;;;18.64;100.00;99578.50;5151359;27;20051;-51
2022/08/20 05:38:33;;;;;;;14.35;7.45;;;;;;;18.63;100.00;99560.28;5151540;27;20467;-52
2022/08/20 05:41:00;;;;;;;11.50;6.97;;;;;;;18.54;100.00;99544.06;5151508;27;20051;-52
2022/08/20 05:43:27;;;;;;;15.40;10.30;;;;;;;18.64;100.00;99538.84;5151106;27;20050;-50
2022/08/20 05:45:53;;;;;;;15.40;10.20;;;;;;;18.62;100.00;99542.00;5151402;27;20494;-53
2022/08/20 05:48:22;;;;;;;12.93;10.23;;;;;;;18.47;100.00;99537.78;5150988;27;20047;-51
2022/08/20 05:50:50;;;;;;;13.85;6.90;;;;;;;18.58;100.00;99514.28;5151285;27;20061;-52
2022/08/20 05:53:17;;;;;;;16.05;10.07;;;;;;;18.38;100.00;99493.06;5151095;27;20047;-50
2022/08/20 05:55:44;;;;;;;14.70;7.45;;;;;;;18.57;100.00;99482.16;5151250;27;20047;-50
2022/08/20 05:58:17;;;;;;;14.60;7.20;;;;;;;18.63;100.00;99503.94;5152697;27;20046;-48
2022/08/20 06:00:45;;;;;;;12.80;7.13;;;;;;;18.70;100.00;99506.66;5154810;27;20132;-52
2022/08/20 06:05:52;;;;;;;22.98;7.18;;;;;;;18.47;100.00;99533.03;5109108;27;20061;-50
2022/08/20 06:08:19;;;;;;;25.88;8.32;;;;;;;18.77;100.00;99526.84;5154956;27;20046;-53
2022/08/20 06:10:46;;;;;;;15.68;10.10;;;;;;;18.53;100.00;99500.06;5154557;27;20079;-51
2022/08/20 06:13:12;;;;;;;15.65;7.28;;;;;;;18.44;100.00;99503.31;5154724;27;20046;-49
2022/08/20 06:15:38;;;;;;;20.90;7.68;;;;;;;18.44;100.00;99472.78;5154529;27;20137;-49
2022/08/20 06:18:07;;;;;;;15.60;7.07;;;;;;;18.26;100.00;99464.63;5154234;27;20085;-48
2022/08/20 06:20:34;;;;;;;11.77;7.82;;;;;;;18.53;100.00;99436.22;5154482;27;20059;-52
2022/08/20 06:23:00;;;;;;;15.43;8.00;;;;;;;18.46;100.00;99411.28;5154547;27;20050;-52
2022/08/20 06:25:28;;;;;;;11.98;10.32;;;;;;;18.66;100.00;99405.91;5154390;27;20467;-49
2022/08/20 06:27:54;;;;;;;16.00;9.90;;;;;;;18.48;100.00;99384.69;5154288;27;20046;-50
2022/08/20 06:30:21;;;;;;;11.18;7.40;;;;;;;18.44;100.00;99355.41;5154138;27;20106;-50
2022/08/20 06:32:50;;;;;;;13.70;7.72;;;;;;;18.45;100.00;99354.19;5154098;27;20134;-51
2022/08/20 06:35:17;;;;;;;19.25;7.55;;;;;;;18.47;100.00;99335.94;5154410;27;20066;-50
2022/08/20 06:37:43;;;;;;;16.65;11.30;;;;;;;18.75;100.00;99342.38;5154148;27;20505;-52
2022/08/20 06:40:12;;;;;;;14.70;7.53;;;;;;;18.79;100.00;99340.31;5154329;27;20557;-51
2022/08/20 06:42:42;;;;;;;15.02;9.57;;;;;;;18.60;100.00;99349.28;5154040;27;20133;-52
2022/08/20 06:45:09;;;;;;;10.38;9.23;;;;;;;18.42;100.00;99325.28;5154192;27;20076;-52
2022/08/20 06:47:39;;;;;;;8.48;7.30;;;;;;;18.39;100.00;99297.56;5153954;27;20054;-49
2022/08/20 06:50:08;;;;;;;8.75;7.13;;;;;;;18.55;100.00;99301.31;5154119;27;20049;-49
2022/08/20 06:52:38;;;;;;;10.07;6.38;;;;;;;18.63;100.00;99279.81;5154207;27;20050;-51
2022/08/20 06:55:06;;;;;;;9.35;8.13;;;;;;;18.60;100.00;99297.31;5153744;27;20047;-49
2022/08/20 06:57:33;;;;;;;7.88;6.13;;;;;;;18.54;100.00;99282.31;5154206;27;20061;-52
2022/08/20 06:59:59;;;;;;;8.90;6.07;;;;;;;18.67;100.00;99275.00;5153998;27;20488;-53
2022/08/20 07:02:25;;;;;;;7.20;5.03;;;;;;;18.66;100.00;99283.72;5153839;27;20490;-52
2022/08/20 07:04:52;;;;;;;7.72;7.03;;;;;;;18.56;100.00;99288.25;5153761;27;20149;-52
2022/08/20 07:07:19;;;;;;;6.28;4.60;;;;;;;18.38;100.00;99280.13;5153869;27;20058;-52
2022/08/20 07:09:46;;;;;;;8.15;7.45;;;;;;;18.58;100.00;99269.94;5152597;27;20051;-52
2022/08/20 07:12:12;;;;;;;11.30;4.80;;;;;;;18.81;100.00;99283.16;5153779;27;20465;-51
2022/08/20 07:14:38;;;;;;;7.38;5.25;;;;;;;19.00;100.00;99300.38;5153463;27;20046;-51
2022/08/20 07:17:06;;;;;;;5.78;4.93;;;;;;;18.74;100.00;99322.16;5153836;27;20047;-50
2022/08/20 07:19:32;;;;;;;17.85;5.47;;;;;;;19.14;100.00;99325.19;5153668;27;20051;-50
2022/08/20 07:21:58;;;;;;;10.65;7.10;;;;;;;19.14;100.00;99325.19;5153655;27;20078;-52
2022/08/20 07:24:25;;;;;;;10.75;7.30;;;;;;;19.08;100.00;99340.75;5153659;27;20219;-49
2022/08/20 07:26:52;;;;;;;6.70;5.13;;;;;;;19.35;100.00;99354.66;5153504;27;20087;-52
2022/08/20 07:29:18;;;;;;;8.02;7.22;;;;;;;19.59;100.00;99374.16;5153798;27;20144;-49
2022/08/20 07:34:30;;;;;;;11.23;5.32;;;;;;;19.96;100.00;99513.13;5153549;27;20081;-51
2022/08/20 07:36:58;;;;;;;6.68;4.80;;;;;;;20.04;100.00;99541.63;5153217;27;20535;-49
2022/08/20 07:39:24;;;;;;;7.93;4.60;;;;;;;20.37;100.00;99575.34;5153379;27;20520;-50
2022/08/20 07:42:01;;;;;;;8.45;4.93;;;;;;;20.68;100.00;99620.63;5153063;27;20133;-51
2022/08/20 07:44:28;;;;;;;6.13;3.85;;;;;;;20.35;100.00;99639.78;5153210;27;20134;-50
2022/08/20 07:46:54;;;;;;;6.35;3.97;;;;;;;20.03;100.00;99631.09;5153083;27;20064;-51
2022/08/20 07:49:20;;;;;;;9.05;4.60;;;;;;;20.08;100.00;99625.84;5152853;27;20498;-48
2022/08/20 07:51:47;;;;;;;4.65;3.50;;;;;;;20.31;100.00;99629.91;5152850;27;20055;-49
2022/08/20 07:54:13;;;;;;;4.13;3.47;;;;;;;20.29;100.00;99655.38;5152970;27;20069;-50
2022/08/20 07:56:39;;;;;;;9.48;4.05;;;;;;;20.56;100.00;99657.41;5152713;27;20520;-50
2022/08/20 07:59:06;;;;;;;6.07;3.35;;;;;;;20.60;100.00;99666.53;5153023;27;20428;-52
2022/08/20 08:01:32;;;;;;;8.60;3.58;;;;;;;20.80;100.00;99663.84;5152857;27;20500;-50
2022/08/20 08:03:59;;;;;;;10.35;3.88;;;;;;;20.83;100.00;99668.56;5153012;27;20104;-48
2022/08/20 08:06:28;;;;;;;6.15;3.35;;;;;;;20.79;100.00;99656.66;5153127;27;20050;-49
2022/08/20 08:08:54;;;;;;;6.28;3.45;;;;;;;21.43;100.00;99627.72;5152757;27;20092;-48
2022/08/20 08:11:20;;;;;;;4.28;3.65;;;;;;;22.10;100.00;99577.31;5152718;27;20046;-48
2022/08/20 08:13:47;;;;;;;6.30;3.45;;;;;;;22.10;100.00;99479.59;5152760;27;20047;-49
2022/08/20 08:16:15;;;;;;;4.90;3.47;;;;;;;21.61;100.00;99460.75;5153041;27;20055;-48
2022/08/20 08:18:45;;;;;;;3.90;3.17;;;;;;;21.36;100.00;99517.09;5152555;27;20097;-48
2022/08/20 08:21:12;;;;;;;7.15;4.15;;;;;;;21.06;100.00;99557.09;5152350;27;20103;-48
2022/08/20 08:23:42;;;;;;;5.45;3.42;;;;;;;20.80;100.00;99592.19;5152510;27;20051;-51
2022/08/20 08:26:09;;;;;;;7.70;4.00;;;;;;;20.58;100.00;99633.50;5152823;27;20442;-49
2022/08/20 08:28:35;;;;;;;8.00;3.78;;;;;;;20.62;100.00;99633.44;5152488;27;20085;-50
2022/08/20 08:31:02;;;;;;;6.50;3.88;;;;;;;20.27;100.00;99665.38;5152231;27;20050;-48
2022/08/20 08:33:31;;;;;;;10.85;4.00;;;;;;;20.02;100.00;99669.25;5152575;27;20057;-48
2022/08/20 08:36:03;;;;;;;10.75;3.15;;;;;;;19.86;100.00;99613.41;5152316;27;20046;-50
2022/08/20 08:38:30;;;;;;;4.25;3.53;;;;;;;20.01;100.00;99578.63;5152435;27;20072;-48
2022/08/20 08:41:02;;;;;;;5.35;4.10;;;;;;;20.05;100.00;99559.09;5152047;27;20443;-49
2022/08/20 08:43:30;;;;;;;5.35;4.28;;;;;;;19.62;100.00;99523.50;5152122;27;20141;-50
2022/08/20 08:46:00;;;;;;;12.35;4.78;;;;;;;19.54;100.00;99460.84;5152182;27;20042;-48
2022/08/20 08:48:33;;;;;;;10.15;5.10;;;;;;;19.19;100.00;99413.66;5152244;27;20062;-49
2022/08/20 08:51:02;;;;;;;10.77;6.80;;;;;;;19.41;100.00;99360.53;5152039;27;20168;-52
2022/08/20 08:53:33;;;;;;;8.43;3.90;;;;;;;19.33;100.00;99365.41;5152244;27;20085;-51
2022/08/20 08:56:00;;;;;;;6.07;3.83;;;;;;;19.79;100.00;99363.91;5152498;27;20054;-51
2022/08/20 08:58:27;;;;;;;4.32;3.47;;;;;;;19.65;100.00;99384.41;5152091;27;20425;-52
2022/08/20 09:00:53;;;;;;;4.95;2.78;;;;;;;19.54;100.00;99366.31;5152349;27;20399;-52
2022/08/20 09:03:25;;;;;;;5.18;3.60;;;;;;;19.29;100.00;99356.31;5151900;27;20046;-52
2022/08/20 09:05:54;;;;;;;3.13;2.83;;;;;;;19.58;100.00;99328.09;5152012;27;20050;-50
2022/08/20 09:08:26;;;;;;;4.90;3.20;;;;;;;19.72;100.00;99331.44;5151902;27;20164;-52
2022/08/20 09:10:52;;;;;;;4.18;2.58;;;;;;;19.34;100.00;99352.31;5151491;27;20502;-52
2022/08/20 09:13:19;;;;;;;3.00;2.42;;;;;;;19.28;100.00;99321.41;5151156;27;20046;-51
2022/08/20 09:15:45;;;;;;;3.83;2.88;;;;;;;19.27;100.00;99331.72;5151810;27;20432;-51
2022/08/20 09:18:12;;;;;;;3.50;2.50;;;;;;;19.42;100.00;99300.94;5151691;27;20047;-49
2022/08/20 09:20:38;;;;;;;4.28;2.70;;;;;;;19.49;100.00;99298.03;5151836;27;20065;-49
2022/08/20 09:23:06;;;;;;;6.07;2.95;;;;;;;19.32;100.00;99310.22;5152009;27;20050;-51
2022/08/20 09:25:32;;;;;;;4.63;3.67;;;;;;;19.23;100.00;99313.56;5151623;27;20046;-50
2022/08/20 09:27:58;;;;;;;5.03;3.47;;;;;;;18.88;100.00;99320.38;5151664;27;20137;-48
2022/08/20 09:30:25;;;;;;;5.30;3.22;;;;;;;19.13;100.00;99309.72;5151819;27;20050;-48
2022/08/20 09:32:51;;;;;;;5.57;4.75;;;;;;;19.35;100.00;99326.06;5150962;27;20182;-52
2022/08/20 09:35:17;;;;;;;6.60;3.45;;;;;;;19.57;100.00;99343.22;5151583;27;20088;-49
2022/08/20 09:37:45;;;;;;;7.03;4.32;;;;;;;19.72;100.00;99378.72;5151550;27;20511;-48
2022/08/20 09:40:12;;;;;;;5.57;3.65;;;;;;;19.56;100.00;99397.25;5151569;27;20050;-48
2022/08/20 09:42:39;;;;;;;6.50;4.15;;;;;;;19.37;100.00;99413.41;5151814;27;20053;-48
2022/08/20 09:45:06;;;;;;;9.45;4.43;;;;;;;19.92;100.00;99405.84;5151123;27;20050;-50
2022/08/20 09:47:33;;;;;;;11.60;4.60;;;;;;;19.96;100.00;99434.41;5151777;27;20129;-51
2022/08/20 09:49:59;;;;;;;6.70;4.28;;;;;;;19.80;100.00;99442.63;5151544;27;20050;-49
2022/08/20 09:52:28;;;;;;;9.95;4.32;;;;;;;19.41;100.00;99424.47;5151366;27;20089;-49
2022/08/20 09:55:02;;;;;;;10.02;4.78;;;;;;;19.55;100.00;99431.81;5151760;27;20106;-52
2022/08/20 09:57:30;;;;;;;;;;;;;;;19.70;100.00;99480.50;5151668;27;20050;-50
2022/08/20 10:00:00;;;;;;;16.33;5.22;;;;;;;19.32;100.00;99460.34;5151187;27;19966;-49
2022/08/20 10:02:26;;;;;;;15.38;6.60;;;;;;;19.25;100.00;99445.31;5151215;27;20409;-50
2022/08/20 10:04:53;;;;;;;9.63;4.45;;;;;;;19.20;100.00;99434.66;5150910;27;20504;-49
2022/08/20 10:07:19;;;;;;;11.85;5.05;;;;;;;19.52;100.00;99439.78;5151069;27;20050;-49
2022/08/20 10:09:45;;;;;;;13.40;5.25;;;;;;;19.42;100.00;99457.41;5150859;27;20047;-50
2022/08/20 10:12:12;;;;;;;17.77;5.18;;;;;;;19.17;100.00;99471.63;5151027;27;20050;-52
2022/08/20 10:14:39;;;;;;;8.73;5.07;;;;;;;19.62;100.00;99476.22;5150986;27;20050;-49
2022/08/20 10:17:05;;;;;;;9.02;5.63;;;;;;;19.45;100.00;99492.72;5150804;27;20054;-51
2022/08/20 10:19:32;;;;;;;18.10;7.20;;;;;;;19.58;100.00;99503.28;5150799;27;20049;-50
2022/08/20 10:21:59;;;;;;;11.50;4.65;;;;;;;19.57;100.00;99496.16;5151199;27;20051;-52
2022/08/20 10:24:26;;;;;;;8.57;4.35;;;;;;;19.80;100.00;99540.00;5150661;27;20530;-50
2022/08/20 10:26:55;;;;;;;15.85;4.90;;;;;;;19.85;100.00;99537.50;5150750;27;20055;-52
2022/08/20 10:29:22;;;;;;;14.90;5.20;;;;;;;19.90;100.00;99544.63;5150767;27;20409;-50
2022/08/20 10:31:49;;;;;;;17.50;5.57;;;;;;;19.86;100.00;99546.63;5150994;27;20083;-51
2022/08/20 10:34:15;;;;;;;11.75;5.10;;;;;;;19.84;100.00;99549.84;5150614;27;20061;-52
2022/08/20 10:36:42;;;;;;;10.60;5.38;;;;;;;20.26;100.00;99560.78;5150646;27;20085;-49
2022/08/20 10:39:09;;;;;;;8.13;4.88;;;;;;;20.14;100.00;99584.44;5150506;27;20413;-53
2022/08/20 10:41:35;;;;;;;14.07;4.90;;;;;;;20.03;100.00;99586.59;5150478;27;20050;-49
2022/08/20 10:44:01;;;;;;;15.82;5.65;;;;;;;20.12;100.00;99576.47;5150500;27;20070;-52
2022/08/20 10:46:28;;;;;;;18.65;4.95;;;;;;;19.96;100.00;99588.25;5154080;27;20498;-51
2022/08/20 10:48:54;;;;;;;15.70;5.45;;;;;;;19.73;100.00;99577.81;5154345;27;20057;-50
2022/08/20 10:51:21;;;;;;;12.63;5.03;;;;;;;19.47;100.00;99561.81;5153737;27;20043;-50
2022/08/20 10:53:47;;;;;;;16.70;5.63;;;;;;;19.64;100.00;99552.50;5154012;27;20129;-48
2022/08/20 10:56:13;;;;;;;14.15;5.35;;;;;;;19.77;100.00;99529.69;5154016;27;20070;-50
2022/08/20 10:58:39;;;;;;;22.25;6.78;;;;;;;19.93;100.00;99552.91;5153830;27;20046;-49
2022/08/20 11:01:06;;;;;;;17.17;5.85;;;;;;;19.77;100.00;99571.41;5153727;27;20056;-50
2022/08/20 11:03:32;;;;;;;12.07;5.95;;;;;;;20.01;100.00;99583.41;5153982;27;20522;-51
2022/08/20 11:05:59;;;;;;;11.38;5.43;;;;;;;19.71;100.00;99573.88;5154313;27;20154;-50
2022/08/20 11:08:25;;;;;;;16.33;5.00;;;;;;;19.75;100.00;99575.38;5153943;27;20046;-51
2022/08/20 11:10:51;;;;;;;17.35;5.20;;;;;;;19.89;100.00;99581.97;5153782;27;20046;-49
2022/08/20 11:13:18;;;;;;;18.60;5.43;;;;;;;19.54;100.00;99600.66;5153846;27;20233;-49
2022/08/20 11:15:45;;;;;;;20.10;5.45;;;;;;;19.96;100.00;99599.38;5153899;27;20462;-49
2022/08/20 11:18:12;;;;;;;12.40;4.93;;;;;;;20.10;100.00;99609.53;5153560;27;20125;-50
2022/08/20 11:20:39;;;;;;;16.23;5.65;;;;;;;20.05;100.00;99637.81;5153845;27;20466;-49
2022/08/20 11:23:06;;;;;;;10.35;5.55;;;;;;;19.88;100.00;99619.34;5153377;27;20502;-50
2022/08/20 11:25:32;;;;;;;17.17;6.47;;;;;;;20.03;100.00;99631.91;5153336;27;20054;-52
2022/08/20 11:27:59;;;;;;;23.92;4.85;;;;;;;20.26;100.00;99645.09;5153442;27;20051;-51